createdAt,value
2017-12-15T00:01:43.170Z,6.40
2017-12-15T00:04:10.633Z,6.53
2017-12-15T00:06:38.091Z,8.10
2017-12-15T00:09:05.537Z,7.60
2017-12-15T00:11:32.977Z,8.47
2017-12-15T00:14:00.427Z,8.73
2017-12-15T00:16:28.648Z,9.17
2017-12-15T00:18:56.096Z,8.47
2017-12-15T00:21:23.544Z,8.93
2017-12-15T00:23:51.009Z,8.20
2017-12-15T00:26:18.447Z,8.63
2017-12-15T00:28:45.900Z,7.87
2017-12-15T00:31:13.353Z,8.77
2017-12-15T00:33:40.801Z,8.03
2017-12-15T00:36:08.240Z,8.50
2017-12-15T00:38:35.715Z,9.27
2017-12-15T00:41:03.181Z,8.87
2017-12-15T00:43:30.610Z,9.10
2017-12-15T00:45:58.831Z,9.40
2017-12-15T00:48:26.289Z,9.07
2017-12-15T00:50:53.749Z,8.90
2017-12-15T00:53:21.202Z,8.97
2017-12-15T00:55:48.654Z,9.27
2017-12-15T00:58:16.103Z,9.27
2017-12-15T01:00:43.560Z,9.80
2017-12-15T01:03:11.767Z,9.03
2017-12-15T01:05:39.215Z,8.80
2017-12-15T01:08:06.681Z,8.77
2017-12-15T01:10:34.232Z,9.27
2017-12-15T01:13:01.682Z,8.83
2017-12-15T01:15:29.897Z,10.00
2017-12-15T01:17:57.356Z,9.27
2017-12-15T01:20:24.804Z,9.40
2017-12-15T01:22:52.276Z,9.80
2017-12-15T01:25:19.719Z,9.37
2017-12-15T01:27:47.936Z,9.57
2017-12-15T01:30:15.389Z,10.07
2017-12-15T01:32:42.872Z,10.00
2017-12-15T01:35:10.329Z,10.30
2017-12-15T01:37:37.792Z,10.07
2017-12-15T01:40:05.257Z,9.23
2017-12-15T01:42:32.726Z,11.33
2017-12-15T01:45:00.162Z,10.43
2017-12-15T01:47:27.626Z,11.13
2017-12-15T01:49:55.095Z,10.63
2017-12-15T01:52:22.550Z,10.27
2017-12-15T01:54:50.001Z,10.13
2017-12-15T01:57:17.444Z,11.17
2017-12-15T01:59:45.675Z,11.47
2017-12-15T02:02:13.129Z,10.77
2017-12-15T02:04:40.604Z,10.27
2017-12-15T02:07:08.048Z,9.73
2017-12-15T02:09:35.520Z,10.20
2017-12-15T02:12:03.735Z,10.17
2017-12-15T02:14:31.193Z,10.10
2017-12-15T02:16:58.652Z,10.80
2017-12-15T02:19:26.095Z,10.93
2017-12-15T02:21:53.571Z,9.80
2017-12-15T02:24:21.027Z,10.10
2017-12-15T02:26:48.479Z,10.77
2017-12-15T02:29:15.938Z,10.10
2017-12-15T02:31:43.410Z,10.20
2017-12-15T02:34:11.604Z,10.87
2017-12-15T02:36:39.062Z,9.93
2017-12-15T02:39:06.529Z,10.43
2017-12-15T02:41:33.982Z,9.83
2017-12-15T02:44:01.435Z,9.97
2017-12-15T02:46:28.896Z,10.87
2017-12-15T02:48:56.366Z,10.93
2017-12-15T02:51:23.833Z,10.60
2017-12-15T02:53:51.311Z,10.00
2017-12-15T02:56:18.806Z,10.70
2017-12-15T02:58:46.222Z,10.17
2017-12-15T03:01:13.670Z,10.90
2017-12-15T03:03:41.142Z,10.13
2017-12-15T03:06:08.601Z,10.63
2017-12-15T03:08:36.046Z,10.63
2017-12-15T03:11:03.506Z,11.10
2017-12-15T03:13:30.984Z,11.27
2017-12-15T03:15:58.434Z,9.83
2017-12-15T03:18:25.899Z,11.17
2017-12-15T03:20:53.354Z,10.80
2017-12-15T03:23:20.803Z,11.80
2017-12-15T03:25:48.260Z,12.20
2017-12-15T03:28:16.468Z,12.27
2017-12-15T03:30:43.922Z,11.73
2017-12-15T03:33:11.368Z,11.40
2017-12-15T03:35:39.601Z,12.30
2017-12-15T03:38:07.042Z,12.67
2017-12-15T03:40:34.497Z,12.57
2017-12-15T03:43:01.955Z,12.00
2017-12-15T03:45:29.411Z,12.50
2017-12-15T03:47:56.911Z,12.33
2017-12-15T03:50:24.356Z,11.77
2017-12-15T03:52:51.826Z,11.20
2017-12-15T03:55:19.271Z,12.27
2017-12-15T03:57:46.740Z,11.23
2017-12-15T04:00:14.218Z,10.60
2017-12-15T04:02:41.690Z,12.03
2017-12-15T04:05:09.139Z,11.63
2017-12-15T04:07:36.601Z,12.03
2017-12-15T04:10:04.040Z,11.83
2017-12-15T04:12:31.476Z,12.40
2017-12-15T04:14:59.698Z,11.57
2017-12-15T04:17:27.143Z,11.67
2017-12-15T04:19:54.615Z,12.73
2017-12-15T04:22:22.055Z,12.10
2017-12-15T04:24:49.504Z,12.07
2017-12-15T04:27:17.728Z,11.83
2017-12-15T04:29:45.174Z,12.83
2017-12-15T04:32:12.619Z,13.53
2017-12-15T04:34:40.063Z,11.20
2017-12-15T04:37:07.517Z,11.70
2017-12-15T04:39:34.966Z,12.57
2017-12-15T04:42:02.454Z,12.93
2017-12-15T04:44:30.668Z,13.47
2017-12-15T04:46:58.137Z,12.70
2017-12-15T04:49:25.591Z,13.03
2017-12-15T04:51:53.063Z,13.80
2017-12-15T04:54:20.520Z,12.93
2017-12-15T04:56:47.968Z,13.53
2017-12-15T04:59:15.421Z,15.00
2017-12-15T05:01:43.683Z,14.43
2017-12-15T05:04:11.070Z,14.73
2017-12-15T05:06:38.523Z,14.20
2017-12-15T05:09:06.732Z,14.20
2017-12-15T05:11:34.195Z,13.80
2017-12-15T05:14:01.656Z,14.13
2017-12-15T05:16:29.115Z,13.77
2017-12-15T05:18:56.582Z,13.73
2017-12-15T05:21:24.015Z,14.13
2017-12-15T05:23:52.227Z,12.57
2017-12-15T05:26:19.685Z,13.23
2017-12-15T05:28:47.139Z,13.60
2017-12-15T05:31:14.573Z,11.97
2017-12-15T05:33:42.031Z,13.10
2017-12-15T05:36:09.484Z,12.67
2017-12-15T05:38:36.926Z,12.47
2017-12-15T05:41:04.391Z,13.47
2017-12-15T05:43:31.847Z,13.47
2017-12-15T05:45:59.295Z,13.73
2017-12-15T05:48:26.750Z,13.20
2017-12-15T05:50:54.246Z,14.23
2017-12-15T05:53:22.412Z,13.10
2017-12-15T05:55:49.851Z,14.00
2017-12-15T05:58:17.295Z,14.90
2017-12-15T06:00:45.514Z,13.93
2017-12-15T06:03:12.955Z,14.63
2017-12-15T06:05:40.434Z,14.23
2017-12-15T06:08:07.890Z,14.37
2017-12-15T06:10:35.353Z,15.70
2017-12-15T06:13:03.424Z,15.30
2017-12-15T06:15:30.916Z,16.03
2017-12-15T06:17:58.368Z,16.03
2017-12-15T06:20:25.827Z,15.77
2017-12-15T06:22:53.289Z,15.13
2017-12-15T06:25:20.730Z,15.60
2017-12-15T06:27:48.178Z,15.67
2017-12-15T06:30:15.650Z,14.77
2017-12-15T06:32:43.098Z,15.70
2017-12-15T06:35:11.334Z,15.03
2017-12-15T06:37:38.778Z,15.93
2017-12-15T06:40:06.223Z,17.13
2017-12-15T06:42:33.681Z,16.37
2017-12-15T06:45:01.296Z,15.57
2017-12-15T06:47:28.756Z,16.50
2017-12-15T06:49:56.199Z,15.43
2017-12-15T06:52:23.640Z,16.23
2017-12-15T06:54:51.071Z,15.57
2017-12-15T06:57:19.309Z,15.67
2017-12-15T06:59:46.767Z,16.67
2017-12-15T07:02:14.969Z,15.87
2017-12-15T07:04:42.532Z,15.83
2017-12-15T07:07:09.986Z,15.73
2017-12-15T07:09:37.431Z,15.77
2017-12-15T07:12:04.902Z,15.27
2017-12-15T07:14:32.345Z,15.50
2017-12-15T07:16:59.776Z,15.10
2017-12-15T07:19:27.995Z,16.73
2017-12-15T07:21:55.738Z,14.53
2017-12-15T07:24:23.947Z,15.93
2017-12-15T07:26:51.407Z,16.43
2017-12-15T07:29:18.860Z,17.47
2017-12-15T07:31:46.304Z,16.40
2017-12-15T07:34:14.508Z,17.87
2017-12-15T07:36:42.734Z,17.03
2017-12-15T07:39:10.181Z,16.90
2017-12-15T07:41:37.614Z,20.07
2017-12-15T07:44:05.083Z,17.23
2017-12-15T07:46:32.514Z,17.57
2017-12-15T07:48:59.985Z,17.70
2017-12-15T07:51:27.448Z,18.13
2017-12-15T07:53:54.894Z,17.17
2017-12-15T07:56:23.133Z,18.13
2017-12-15T07:58:50.571Z,17.57
2017-12-15T08:01:18.015Z,17.10
2017-12-15T08:03:45.467Z,18.73
2017-12-15T08:06:13.684Z,18.77
2017-12-15T08:08:41.130Z,17.83
2017-12-15T08:11:08.564Z,18.57
2017-12-15T08:13:36.777Z,18.80
2017-12-15T08:16:04.216Z,17.57
2017-12-15T08:18:31.699Z,17.97
2017-12-15T08:20:59.132Z,18.60
2017-12-15T08:23:27.356Z,19.10
2017-12-15T08:25:54.820Z,18.40
2017-12-15T08:28:22.279Z,18.27
2017-12-15T08:30:49.710Z,20.13
2017-12-15T08:33:17.155Z,19.13
2017-12-15T08:35:45.388Z,19.57
2017-12-15T08:38:12.840Z,21.03
2017-12-15T08:40:40.291Z,20.27
2017-12-15T08:43:07.751Z,20.73
2017-12-15T08:45:35.203Z,18.87
2017-12-15T08:48:02.654Z,20.03
2017-12-15T08:50:30.888Z,19.03
2017-12-15T08:52:58.345Z,20.47
2017-12-15T08:55:25.796Z,19.83
2017-12-15T08:57:53.243Z,19.63
2017-12-15T09:00:20.709Z,19.47
2017-12-15T09:02:48.156Z,19.13
2017-12-15T09:05:16.379Z,18.93
2017-12-15T09:07:43.839Z,20.47
2017-12-15T09:10:11.297Z,19.23
2017-12-15T09:12:38.739Z,18.00
2017-12-15T09:15:06.200Z,20.40
2017-12-15T09:17:33.643Z,19.77
2017-12-15T09:20:01.859Z,19.93
2017-12-15T09:22:29.324Z,21.10
2017-12-15T09:24:56.771Z,20.10
2017-12-15T09:27:24.216Z,18.83
2017-12-15T09:29:51.660Z,20.53
2017-12-15T09:32:19.879Z,21.93
2017-12-15T09:34:47.343Z,20.43
2017-12-15T09:37:14.792Z,21.73
2017-12-15T09:39:42.244Z,21.73
2017-12-15T09:42:09.685Z,21.27
2017-12-15T09:44:37.138Z,19.80
2017-12-15T09:47:04.590Z,20.60
2017-12-15T09:49:32.053Z,22.60
2017-12-15T09:51:59.506Z,20.93
2017-12-15T09:54:26.938Z,22.30
2017-12-15T09:56:54.387Z,22.30
2017-12-15T09:59:21.825Z,22.23
2017-12-15T10:01:50.045Z,22.50
2017-12-15T10:04:17.486Z,22.43
2017-12-15T10:06:45.715Z,22.33
2017-12-15T10:09:13.176Z,22.27
2017-12-15T10:11:40.629Z,22.03
2017-12-15T10:14:08.092Z,20.70
2017-12-15T10:16:35.554Z,20.10
2017-12-15T10:19:03.980Z,20.03
2017-12-15T10:21:31.424Z,18.30
2017-12-15T10:23:58.870Z,19.27
2017-12-15T10:26:26.325Z,19.23
2017-12-15T10:28:53.770Z,18.30
2017-12-15T10:31:21.199Z,18.77
2017-12-15T10:33:49.452Z,17.40
2017-12-15T10:36:16.919Z,17.87
2017-12-15T10:38:44.352Z,20.13
2017-12-15T10:41:11.810Z,26.50
2017-12-15T10:43:39.250Z,20.37
2017-12-15T10:46:06.707Z,18.60
2017-12-15T10:48:34.927Z,19.13
2017-12-15T10:51:02.384Z,20.37
2017-12-15T10:53:29.837Z,19.07
2017-12-15T10:55:57.315Z,19.67
2017-12-15T10:58:24.757Z,20.17
2017-12-15T11:00:52.204Z,19.73
2017-12-15T11:03:19.656Z,19.27
2017-12-15T11:05:47.866Z,20.97
2017-12-15T11:08:15.326Z,19.60
2017-12-15T11:10:42.770Z,20.20
2017-12-15T11:13:10.249Z,20.10
2017-12-15T11:15:37.696Z,19.80
2017-12-15T11:18:05.183Z,20.87
2017-12-15T11:20:32.645Z,20.87
2017-12-15T11:23:00.086Z,22.03
2017-12-15T11:25:27.542Z,21.73
2017-12-15T11:27:55.735Z,20.93
2017-12-15T11:30:23.199Z,20.83
2017-12-15T11:32:50.638Z,21.83
2017-12-15T11:35:18.872Z,21.07
2017-12-15T11:37:46.323Z,21.20
2017-12-15T11:40:13.771Z,21.60
2017-12-15T11:42:41.230Z,22.97
2017-12-15T11:45:08.684Z,22.07
2017-12-15T11:47:36.119Z,21.97
2017-12-15T11:50:03.568Z,22.07
2017-12-15T11:52:31.013Z,22.70
2017-12-15T11:54:58.459Z,23.23
2017-12-15T11:57:25.920Z,22.27
2017-12-15T11:59:53.376Z,21.57
2017-12-15T12:02:20.836Z,22.17
2017-12-15T12:04:48.296Z,21.50
2017-12-15T12:07:15.731Z,21.33
2017-12-15T12:09:43.958Z,20.47
2017-12-15T12:12:11.407Z,20.40
2017-12-15T12:14:38.859Z,20.93
2017-12-15T12:17:06.304Z,20.57
2017-12-15T12:19:34.523Z,21.07
2017-12-15T12:22:01.978Z,20.73
2017-12-15T12:24:29.435Z,18.40
2017-12-15T12:26:56.893Z,20.80
2017-12-15T12:29:24.329Z,20.00
2017-12-15T12:31:52.574Z,19.23
2017-12-15T12:34:20.030Z,18.87
2017-12-15T12:36:47.464Z,18.70
2017-12-15T12:39:14.902Z,19.77
2017-12-15T12:41:42.368Z,20.30
2017-12-15T12:44:10.581Z,19.63
2017-12-15T12:46:38.024Z,19.27
2017-12-15T12:49:05.478Z,19.13
2017-12-15T12:51:32.952Z,18.97
2017-12-15T12:54:00.401Z,20.00
2017-12-15T12:56:27.846Z,17.83
2017-12-15T12:58:56.066Z,19.90
2017-12-15T13:01:23.516Z,18.80
2017-12-15T13:03:50.958Z,19.23
2017-12-15T13:06:19.177Z,17.60
2017-12-15T13:08:46.622Z,16.60
2017-12-15T13:11:14.084Z,15.67
2017-12-15T13:13:41.515Z,16.00
2017-12-15T13:16:09.749Z,14.97
2017-12-15T13:18:37.208Z,14.97
2017-12-15T13:21:04.676Z,14.63
2017-12-15T13:23:32.143Z,14.70
2017-12-15T13:25:59.594Z,14.80
2017-12-15T13:28:27.048Z,14.43
2017-12-15T13:30:54.505Z,25.80
2017-12-15T13:33:21.950Z,18.77
2017-12-15T13:35:49.428Z,17.07
2017-12-15T13:38:16.894Z,17.53
2017-12-15T13:40:44.331Z,18.17
2017-12-15T13:43:12.576Z,17.77
2017-12-15T13:45:40.034Z,19.90
2017-12-15T13:48:07.492Z,19.90
2017-12-15T13:50:34.944Z,19.83
2017-12-15T13:53:02.400Z,16.93
2017-12-15T13:55:29.880Z,18.20
2017-12-15T13:57:57.344Z,18.70
2017-12-15T14:00:24.811Z,19.77
2017-12-15T14:02:52.270Z,19.70
2017-12-15T14:05:19.743Z,18.73
2017-12-15T14:07:47.185Z,17.87
2017-12-15T14:10:14.653Z,18.57
2017-12-15T14:12:42.146Z,18.13
2017-12-15T14:15:09.563Z,19.27
2017-12-15T14:17:37.030Z,20.00
2017-12-15T14:20:04.474Z,18.67
2017-12-15T14:22:31.931Z,18.77
2017-12-15T14:24:59.391Z,19.47
2017-12-15T14:27:26.857Z,19.50
2017-12-15T14:29:54.312Z,19.30
2017-12-15T14:32:21.764Z,19.03
2017-12-15T14:34:49.979Z,19.67
2017-12-15T14:37:17.448Z,19.30
2017-12-15T14:39:44.915Z,18.37
2017-12-15T14:42:12.387Z,18.83
2017-12-15T14:44:39.842Z,19.17
2017-12-15T14:47:07.301Z,18.00
2017-12-15T14:49:34.755Z,17.53
2017-12-15T14:52:02.227Z,17.30
2017-12-15T14:54:29.709Z,15.97
2017-12-15T14:56:57.173Z,13.63
2017-12-15T14:59:24.648Z,13.23
2017-12-15T15:01:52.123Z,13.43
2017-12-15T15:04:20.350Z,17.87
2017-12-15T15:06:47.802Z,15.57
2017-12-15T15:09:15.277Z,17.00
2017-12-15T15:11:42.739Z,18.43
2017-12-15T15:14:10.392Z,17.03
2017-12-15T15:16:37.900Z,17.70
2017-12-15T15:19:06.625Z,16.93
2017-12-15T15:21:34.181Z,18.50
2017-12-15T15:24:01.675Z,14.20
2017-12-15T15:26:29.203Z,17.73
2017-12-15T15:28:56.648Z,16.10
2017-12-15T15:31:24.102Z,15.77
2017-12-15T15:33:51.543Z,17.43
2017-12-15T15:36:19.019Z,17.10
2017-12-15T15:38:46.494Z,19.37
2017-12-15T15:41:13.949Z,17.97
2017-12-15T15:43:42.159Z,17.57
2017-12-15T15:46:09.607Z,17.90
2017-12-15T15:48:37.071Z,17.23
2017-12-15T15:51:04.528Z,17.67
2017-12-15T15:53:31.971Z,15.90
2017-12-15T15:55:59.422Z,18.40
2017-12-15T15:58:26.913Z,17.50
2017-12-15T16:00:54.375Z,18.47
2017-12-15T16:03:21.841Z,17.77
2017-12-15T16:05:49.288Z,17.67
2017-12-15T16:08:16.735Z,17.80
2017-12-15T16:10:44.199Z,19.10
2017-12-15T16:13:11.672Z,18.60
2017-12-15T16:15:39.145Z,17.80
2017-12-15T16:18:06.613Z,17.97
2017-12-15T16:20:34.073Z,16.83
2017-12-15T16:23:01.534Z,16.97
2017-12-15T16:25:28.987Z,17.53
2017-12-15T16:27:57.351Z,16.97
2017-12-15T16:30:24.808Z,18.53
2017-12-15T16:32:52.272Z,17.63
2017-12-15T16:35:19.740Z,17.47
2017-12-15T16:37:47.200Z,17.17
2017-12-15T16:40:14.663Z,19.60
2017-12-15T16:42:42.137Z,18.07
2017-12-15T16:45:09.589Z,16.10
2017-12-15T16:47:37.041Z,18.20
2017-12-15T16:50:04.513Z,18.43
2017-12-15T16:52:31.951Z,17.97
2017-12-15T16:55:00.179Z,19.10
2017-12-15T16:57:27.641Z,17.53
2017-12-15T16:59:55.095Z,15.73
2017-12-15T17:02:22.565Z,14.00
2017-12-15T17:04:49.966Z,16.90
2017-12-15T17:07:18.215Z,16.70
2017-12-15T17:09:45.680Z,15.00
2017-12-15T17:12:13.370Z,13.53
2017-12-15T17:14:40.824Z,14.03
2017-12-15T17:17:08.267Z,14.17
2017-12-15T17:19:35.735Z,14.70
2017-12-15T17:22:03.186Z,15.30
2017-12-15T17:24:30.640Z,14.93
2017-12-15T17:26:58.089Z,15.17
2017-12-15T17:29:25.552Z,15.53
2017-12-15T17:31:53.019Z,15.73
2017-12-15T17:34:20.472Z,15.60
2017-12-15T17:36:48.461Z,16.27
2017-12-15T17:39:15.916Z,15.10
2017-12-15T17:41:43.354Z,15.77
2017-12-15T17:44:11.586Z,17.50
2017-12-15T17:46:39.058Z,16.87
2017-12-15T17:49:06.551Z,16.03
2017-12-15T17:51:34.774Z,16.87
2017-12-15T17:54:02.230Z,16.53
2017-12-15T17:56:29.722Z,17.33
2017-12-15T17:58:57.168Z,16.93
2017-12-15T18:01:24.644Z,17.03
2017-12-15T18:03:52.108Z,18.13
2017-12-15T18:06:19.552Z,16.37
2017-12-15T18:08:47.002Z,17.47
2017-12-15T18:11:14.475Z,16.30
2017-12-15T18:13:41.940Z,18.30
2017-12-15T18:16:09.420Z,18.33
2017-12-15T18:18:36.864Z,18.07
2017-12-15T18:21:04.324Z,17.23
2017-12-15T18:23:31.773Z,17.15
2017-12-15T18:25:59.221Z,17.63
2017-12-15T18:28:27.446Z,17.37
2017-12-15T18:30:54.882Z,16.03
2017-12-15T18:33:22.353Z,18.43
2017-12-15T18:35:49.814Z,21.30
2017-12-15T18:38:17.282Z,22.03
2017-12-15T18:40:44.723Z,20.17
2017-12-15T18:43:12.172Z,19.43
2017-12-15T18:45:40.403Z,19.67
2017-12-15T18:48:07.881Z,21.43
2017-12-15T18:50:35.346Z,23.80
2017-12-15T18:53:02.817Z,19.97
2017-12-15T18:55:30.271Z,22.87
2017-12-15T18:57:57.727Z,20.87
2017-12-15T19:00:25.175Z,20.10
2017-12-15T19:02:52.633Z,19.77
2017-12-15T19:05:20.086Z,18.60
2017-12-15T19:07:47.714Z,18.53
2017-12-15T19:10:15.925Z,18.10
2017-12-15T19:12:43.374Z,16.93
2017-12-15T19:15:10.843Z,17.57
2017-12-15T19:17:38.325Z,17.10
2017-12-15T19:20:05.792Z,17.20
2017-12-15T19:22:33.259Z,16.90
2017-12-15T19:25:00.722Z,17.43
2017-12-15T19:27:28.195Z,17.13
2017-12-15T19:29:55.657Z,16.30
2017-12-15T19:32:23.183Z,16.43
2017-12-15T19:34:50.679Z,17.23
2017-12-15T19:37:18.135Z,16.27
2017-12-15T19:39:45.604Z,15.50
2017-12-15T19:42:13.061Z,17.93
2017-12-15T19:44:40.514Z,17.23
2017-12-15T19:47:07.976Z,17.57
2017-12-15T19:49:35.438Z,15.90
2017-12-15T19:52:02.910Z,16.20
2017-12-15T19:54:30.356Z,16.20
2017-12-15T19:56:57.815Z,16.43
2017-12-15T19:59:25.280Z,15.63
2017-12-15T20:01:52.755Z,17.77
2017-12-15T20:04:20.223Z,17.30
2017-12-15T20:06:47.691Z,18.07
2017-12-15T20:09:15.177Z,18.23
2017-12-15T20:11:42.631Z,16.40
2017-12-15T20:14:10.846Z,14.87
2017-12-15T20:16:39.076Z,16.63
2017-12-15T20:19:06.796Z,14.90
2017-12-15T20:21:34.249Z,13.60
2017-12-15T20:24:01.696Z,12.00
2017-12-15T20:26:29.160Z,11.47
2017-12-15T20:28:56.620Z,12.37
2017-12-15T20:31:24.095Z,12.60
2017-12-15T20:33:51.554Z,13.47
2017-12-15T20:36:19.036Z,13.80
2017-12-15T20:38:46.470Z,13.37
2017-12-15T20:41:13.949Z,14.73
2017-12-15T20:43:41.415Z,16.20
2017-12-15T20:46:08.886Z,13.43
2017-12-15T20:48:37.112Z,14.50
2017-12-15T20:51:04.593Z,15.13
2017-12-15T20:53:32.033Z,13.17
2017-12-15T20:55:59.498Z,14.17
2017-12-15T20:58:26.948Z,13.07
2017-12-15T21:00:54.407Z,14.67
2017-12-15T21:03:21.874Z,14.17
2017-12-15T21:05:49.336Z,14.47
2017-12-15T21:08:16.797Z,17.87
2017-12-15T21:10:44.268Z,16.47
2017-12-15T21:13:11.727Z,16.77
2017-12-15T21:15:39.188Z,16.40
2017-12-15T21:18:07.501Z,16.10
2017-12-15T21:20:35.395Z,16.23
2017-12-15T21:23:02.861Z,17.60
2017-12-15T21:25:30.310Z,17.50
2017-12-15T21:27:57.781Z,17.67
2017-12-15T21:30:25.238Z,17.40
2017-12-15T21:32:52.680Z,17.73
2017-12-15T21:35:20.140Z,17.83
2017-12-15T21:37:47.647Z,16.07
2017-12-15T21:40:15.108Z,16.43
2017-12-15T21:42:42.579Z,15.10
2017-12-15T21:45:10.808Z,14.87
2017-12-15T21:47:39.051Z,16.57
2017-12-15T21:50:06.551Z,18.13
2017-12-15T21:52:34.011Z,17.97
2017-12-15T21:55:01.467Z,19.43
2017-12-15T21:57:28.950Z,18.30
2017-12-15T21:59:56.405Z,20.30
2017-12-15T22:02:23.860Z,17.80
2017-12-15T22:04:51.341Z,20.03
2017-12-15T22:07:19.572Z,19.60
2017-12-15T22:09:47.150Z,20.63
2017-12-15T22:12:14.611Z,19.97
2017-12-15T22:14:42.074Z,21.10
2017-12-15T22:17:09.543Z,20.53
2017-12-15T22:19:37.008Z,20.03
2017-12-15T22:22:04.468Z,19.17
2017-12-15T22:24:31.985Z,18.67
2017-12-15T22:26:59.447Z,19.33
2017-12-15T22:29:26.924Z,18.23
2017-12-15T22:31:55.152Z,19.53
2017-12-15T22:34:26.648Z,18.97
2017-12-15T22:36:58.921Z,18.27
2017-12-15T22:39:28.414Z,18.07
2017-12-15T22:41:59.092Z,19.20
2017-12-15T22:44:31.394Z,17.87
2017-12-15T22:46:59.731Z,18.37
2017-12-15T22:49:33.564Z,18.63
2017-12-15T22:52:07.329Z,18.13
2017-12-15T22:54:40.976Z,18.53
2017-12-15T22:57:08.417Z,18.13
2017-12-15T22:59:36.649Z,18.90
2017-12-15T23:02:04.105Z,18.30
2017-12-15T23:04:31.558Z,16.83
2017-12-15T23:06:59.020Z,18.90
2017-12-15T23:09:26.478Z,18.07
2017-12-15T23:11:53.948Z,19.07
2017-12-15T23:14:21.399Z,19.27
2017-12-15T23:16:48.859Z,18.47
2017-12-15T23:19:16.321Z,17.77
2017-12-15T23:21:44.093Z,16.80
2017-12-15T23:24:11.544Z,18.33
2017-12-15T23:26:39.005Z,19.27
2017-12-15T23:29:07.229Z,19.20
2017-12-15T23:31:34.677Z,18.87
2017-12-15T23:34:02.158Z,20.37
2017-12-15T23:36:29.612Z,17.70
2017-12-15T23:38:57.846Z,18.23
2017-12-15T23:41:26.088Z,16.47
2017-12-15T23:43:53.544Z,19.57
2017-12-15T23:46:20.983Z,18.67
2017-12-15T23:48:48.440Z,18.50
2017-12-15T23:51:15.886Z,17.20
2017-12-15T23:53:43.351Z,19.23
2017-12-15T23:56:22.902Z,18.07
2017-12-15T23:58:50.389Z,19.07
